Time;durP1;ratioP1;P1;durP2;ratioP2;P2;SDS_P1;SDS_P2;PMS_P1;PMS_P2;Temp;Humidity;BMP_temperature;BMP_pressure;BME280_temperature;BME280_humidity;BME280_pressure;Samples;Min_cycle;Max_cycle;Signal;HPM_P1;HPM_P2
2022/01/18 00:00:36;;;;;;;365.25;144.30;;;1.80;99.90;;;;;;4943552;28;20034;-65
2022/01/18 00:03:03;;;;;;;189.38;73.75;;;1.80;99.90;;;;;;4960484;28;20023;-65
2022/01/18 00:05:28;;;;;;;73.07;29.60;;;1.70;99.90;;;;;;4973103;28;20023;-65
2022/01/18 00:07:54;;;;;;;58.80;23.65;;;1.80;99.90;;;;;;4970821;28;20027;-65
2022/01/18 00:10:23;;;;;;;59.70;26.40;;;1.80;99.90;;;;;;4963990;28;20062;-65
2022/01/18 00:13:08;;;;;;;61.38;25.80;;;1.80;99.90;;;;;;4960967;28;20024;-65
2022/01/18 00:15:56;;;;;;;98.40;37.45;;;1.80;99.90;;;;;;4965314;28;20043;-64
2022/01/18 00:18:22;;;;;;;121.85;39.80;;;1.80;99.90;;;;;;4958875;28;20023;-65
2022/01/18 00:23:38;;;;;;;112.65;36.30;;;1.90;99.90;;;;;;4964432;28;20058;-66
2022/01/18 00:26:09;;;;;;;78.97;26.98;;;1.90;99.90;;;;;;4970195;28;20431;-66
2022/01/18 00:28:56;;;;;;;41.65;18.35;;;1.90;99.90;;;;;;4947088;28;20023;-66
2022/01/18 00:36:58;;;;;;;13.68;8.45;;;1.90;99.90;;;;;;4965366;28;20058;-65
2022/01/18 00:39:25;;;;;;;14.55;7.95;;;1.90;99.90;;;;;;4962910;28;20207;-66
2022/01/18 00:41:50;;;;;;;23.05;11.40;;;1.90;99.90;;;;;;4961577;28;20022;-66
2022/01/18 00:44:19;;;;;;;143.57;65.40;;;1.90;99.90;;;;;;4972709;28;20027;-66
2022/01/18 00:46:51;;;;;;;148.50;64.15;;;1.90;99.90;;;;;;4968329;28;20041;-65
2022/01/18 00:49:17;;;;;;;138.48;65.50;;;1.90;99.90;;;;;;4965947;28;20031;-66
2022/01/18 00:51:49;;;;;;;24.58;14.20;;;1.90;99.90;;;;;;4963536;28;20035;-65
2022/01/18 00:54:21;;;;;;;16.92;9.35;;;1.90;99.90;;;;;;4964672;28;20015;-66
2022/01/18 00:56:50;;;;;;;9.73;6.30;;;1.90;99.90;;;;;;4965505;28;20030;-65
2022/01/18 00:59:24;;;;;;;13.75;7.53;;;2.00;99.90;;;;;;4965507;28;20027;-65
2022/01/18 01:01:53;;;;;;;12.57;6.38;;;2.00;99.90;;;;;;4962543;28;20034;-65
2022/01/18 01:04:21;;;;;;;12.00;6.70;;;2.00;99.90;;;;;;4961509;28;20122;-65
2022/01/18 01:06:50;;;;;;;13.38;6.43;;;1.90;99.90;;;;;;4953194;28;20031;-66
2022/01/18 01:09:15;;;;;;;9.60;5.22;;;1.90;99.90;;;;;;4973842;28;20023;-66
2022/01/18 01:11:44;;;;;;;7.32;5.40;;;1.80;99.90;;;;;;4976876;28;20248;-66
2022/01/18 01:14:23;;;;;;;11.95;5.90;;;1.60;99.90;;;;;;4965324;28;20034;-65
2022/01/18 01:43:28;;;;;;;12.38;8.02;;;1.30;99.90;;;;;;4962792;28;20090;-66
2022/01/18 01:45:58;;;;;;;17.87;8.63;;;1.40;99.90;;;;;;4965526;28;20034;-66
2022/01/18 01:48:26;;;;;;;9.88;7.57;;;1.40;99.90;;;;;;4978090;28;20126;-64
2022/01/18 01:51:05;;;;;;;17.00;8.18;;;1.40;99.90;;;;;;4992130;28;20114;-66
2022/01/18 01:53:32;;;;;;;14.35;7.03;;;1.40;99.90;;;;;;4975721;28;20034;-66
2022/01/18 01:55:59;;;;;;;15.30;6.68;;;1.50;99.90;;;;;;4956750;28;20028;-65
2022/01/18 01:58:26;;;;;;;9.35;6.53;;;1.50;99.90;;;;;;4966861;28;20054;-65
2022/01/18 02:01:02;;;;;;;9.00;6.65;;;1.50;99.90;;;;;;4967957;28;20034;-65
2022/01/18 02:03:28;;;;;;;9.90;6.55;;;1.50;99.90;;;;;;4971551;28;20485;-66
2022/01/18 02:05:59;;;;;;;15.07;6.68;;;1.50;99.90;;;;;;4969320;28;20041;-66
2022/01/18 02:08:25;;;;;;;15.35;6.72;;;1.60;99.90;;;;;;4968287;28;20039;-65
2022/01/18 02:10:51;;;;;;;13.88;6.22;;;1.60;99.90;;;;;;4966036;28;20568;-65
2022/01/18 02:13:17;;;;;;;13.95;6.85;;;1.60;99.90;;;;;;4975833;28;20042;-65
2022/01/18 02:21:46;;;;;;;13.35;7.75;;;1.60;99.90;;;;;;4977731;28;20054;-66
2022/01/18 02:24:05;;;;;;;14.25;7.03;;;1.70;99.90;;;;;;4966638;28;20063;-66
2022/01/18 02:26:31;;;;;;;17.95;6.10;;;1.80;99.90;;;;;;4970858;28;20177;-65
2022/01/18 02:29:06;;;;;;;11.70;5.53;;;1.80;99.90;;;;;;4972579;28;20356;-65
2022/01/18 02:31:32;;;;;;;15.95;5.65;;;1.70;99.90;;;;;;4971620;28;20034;-65
2022/01/18 02:34:03;;;;;;;12.63;4.78;;;1.70;99.90;;;;;;4966915;28;20483;-66
2022/01/18 02:36:30;;;;;;;17.23;5.55;;;1.70;99.90;;;;;;4972698;28;20034;-65
2022/01/18 02:38:56;;;;;;;10.38;5.68;;;1.80;99.90;;;;;;4966601;28;20553;-66
2022/01/18 02:41:29;;;;;;;14.52;5.00;;;1.70;99.90;;;;;;4961268;28;20046;-66
2022/01/18 02:44:12;;;;;;;12.75;7.72;;;1.80;99.90;;;;;;4968740;28;20034;-65
2022/01/18 02:46:39;;;;;;;18.88;8.02;;;1.80;99.90;;;;;;4965121;28;20422;-65
2022/01/18 02:49:05;;;;;;;12.55;6.22;;;1.80;99.90;;;;;;4963446;28;20030;-66
2022/01/18 02:51:32;;;;;;;15.90;5.88;;;1.90;99.90;;;;;;4967245;28;20058;-66
2022/01/18 02:54:00;;;;;;;23.23;7.13;;;1.90;99.90;;;;;;4976966;28;20033;-66
2022/01/18 02:56:30;;;;;;;9.95;6.05;;;1.90;99.90;;;;;;4967762;28;20030;-66
2022/01/18 02:59:09;;;;;;;9.88;5.80;;;1.80;99.90;;;;;;4963985;28;20110;-65
2022/01/18 03:04:19;;;;;;;11.80;5.68;;;1.80;99.90;;;;;;4967378;28;20572;-66
2022/01/18 03:06:45;;;;;;;10.63;5.50;;;1.70;99.90;;;;;;4970368;28;20046;-65
2022/01/18 03:09:10;;;;;;;10.75;5.45;;;1.70;99.90;;;;;;4972081;28;20049;-65
2022/01/18 03:11:36;;;;;;;9.77;5.00;;;1.70;99.90;;;;;;4962657;28;20031;-66
2022/01/18 03:14:03;;;;;;;10.88;6.22;;;1.70;99.90;;;;;;4958677;28;20118;-66
2022/01/18 03:16:28;;;;;;;12.93;7.32;;;1.60;99.90;;;;;;4965017;28;20058;-65
2022/01/18 03:18:54;;;;;;;15.45;6.22;;;1.60;99.90;;;;;;4979158;28;20031;-66
2022/01/18 03:21:20;;;;;;;14.75;6.72;;;1.60;99.90;;;;;;4972473;28;20027;-66
2022/01/18 03:23:52;;;;;;;15.13;5.43;;;1.50;99.90;;;;;;4964544;28;20713;-66
2022/01/18 03:26:19;;;;;;;11.80;6.18;;;1.40;99.90;;;;;;4968072;28;20706;-66
2022/01/18 03:28:45;;;;;;;11.30;5.82;;;1.40;99.90;;;;;;4969107;28;20113;-65
2022/01/18 03:31:10;;;;;;;14.52;6.57;;;1.40;99.90;;;;;;4965610;28;20026;-66
2022/01/18 03:33:36;;;;;;;11.40;6.15;;;1.40;99.90;;;;;;4973175;28;20035;-66
2022/01/18 03:36:05;;;;;;;18.75;7.30;;;1.40;99.90;;;;;;4968891;28;20031;-65
2022/01/18 03:38:31;;;;;;;11.95;6.10;;;1.40;99.90;;;;;;4964654;28;20030;-65
2022/01/18 03:41:02;;;;;;;16.38;6.95;;;1.30;99.90;;;;;;4964929;28;20026;-65
2022/01/18 03:43:34;;;;;;;14.73;6.55;;;1.30;99.90;;;;;;4966892;28;20174;-66
2022/01/18 03:46:02;;;;;;;11.77;6.65;;;1.40;99.90;;;;;;4964837;28;20490;-63
2022/01/18 03:48:32;;;;;;;25.17;7.07;;;1.40;99.90;;;;;;4960998;28;20514;-63
2022/01/18 03:50:59;;;;;;;16.80;6.60;;;1.40;99.90;;;;;;4966939;28;20019;-63
2022/01/18 03:53:25;;;;;;;18.13;6.43;;;1.50;99.90;;;;;;4969033;28;20035;-65
2022/01/18 03:55:56;;;;;;;13.25;6.45;;;1.50;99.90;;;;;;4969208;28;20054;-65
2022/01/18 03:58:22;;;;;;;9.50;5.70;;;1.50;99.90;;;;;;4979324;28;20045;-66
2022/01/18 04:00:49;;;;;;;19.38;6.68;;;1.50;99.90;;;;;;4984987;28;20033;-66
2022/01/18 04:03:15;;;;;;;15.95;5.75;;;1.60;99.90;;;;;;4960461;28;20023;-65
2022/01/18 04:05:56;;;;;;;12.75;7.00;;;1.60;99.90;;;;;;4967424;28;20041;-66
2022/01/18 04:08:25;;;;;;;16.63;5.95;;;1.60;99.90;;;;;;4965459;28;20027;-65
2022/01/18 04:10:57;;;;;;;9.57;5.97;;;1.60;99.90;;;;;;4966474;28;20123;-65
2022/01/18 04:13:22;;;;;;;13.95;5.78;;;1.70;99.90;;;;;;4962199;28;20027;-65
2022/01/18 04:15:57;;;;;;;13.10;6.53;;;1.70;99.90;;;;;;4956256;28;20031;-65
2022/01/18 04:28:53;;;;;;;10.88;8.55;;;1.70;99.90;;;;;;4967383;28;20410;-66
2022/01/18 04:31:39;;;;;;;17.73;7.10;;;1.80;99.90;;;;;;4969872;28;20563;-65
2022/01/18 04:34:05;;;;;;;10.85;7.07;;;1.80;99.90;;;;;;4968447;28;20027;-65
2022/01/18 04:36:31;;;;;;;12.60;6.18;;;1.80;99.90;;;;;;4968755;28;20022;-66
2022/01/18 04:38:59;;;;;;;15.13;7.22;;;1.80;99.90;;;;;;4972853;28;20042;-65
2022/01/18 04:41:30;;;;;;;13.52;7.00;;;1.80;99.90;;;;;;4966385;28;20027;-65
2022/01/18 04:49:15;;;;;;;17.02;10.05;;;1.80;99.90;;;;;;4960233;28;20065;-66
2022/01/18 04:51:42;;;;;;;22.00;12.05;;;1.90;99.90;;;;;;4961108;28;20607;-66
2022/01/18 04:54:10;;;;;;;21.40;12.52;;;1.90;99.90;;;;;;4963451;28;20070;-66
2022/01/18 04:59:22;;;;;;;16.20;7.55;;;1.90;99.90;;;;;;4968200;28;20035;-66
2022/01/18 05:01:50;;;;;;;25.95;13.23;;;1.90;99.90;;;;;;4969116;28;20027;-66
2022/01/18 05:04:16;;;;;;;20.50;13.45;;;1.80;99.90;;;;;;4970448;28;20055;-65
2022/01/18 05:06:43;;;;;;;22.00;9.00;;;1.80;99.90;;;;;;4972618;28;20031;-65
2022/01/18 05:09:11;;;;;;;13.20;7.30;;;1.80;99.90;;;;;;4962942;28;20053;-66
2022/01/18 05:12:05;;;;;;;9.20;6.38;;;1.90;99.90;;;;;;4975511;28;20038;-65
2022/01/18 05:14:34;;;;;;;12.70;5.82;;;1.80;99.90;;;;;;4968758;28;20418;-65
2022/01/18 05:17:37;;;;;;;18.45;7.13;;;1.80;99.90;;;;;;4965420;28;20122;-66
2022/01/18 05:20:23;;;;;;;16.17;8.35;;;1.80;99.90;;;;;;4968895;28;20071;-65
2022/01/18 05:22:58;;;;;;;12.90;5.82;;;1.80;99.90;;;;;;4959940;28;20061;-66
2022/01/18 05:25:26;;;;;;;20.65;7.57;;;1.70;99.90;;;;;;4962822;28;20504;-66
2022/01/18 05:27:51;;;;;;;17.90;7.55;;;1.70;99.90;;;;;;4966615;28;20478;-66
2022/01/18 05:30:20;;;;;;;15.65;7.53;;;1.70;99.90;;;;;;4970718;28;20018;-66
2022/01/18 05:32:46;;;;;;;29.15;8.25;;;1.70;99.90;;;;;;4973832;28;20082;-65
2022/01/18 05:35:29;;;;;;;20.33;7.63;;;1.70;99.90;;;;;;4971636;28;20065;-65
2022/01/18 05:37:55;;;;;;;11.68;6.63;;;1.70;99.90;;;;;;4975818;28;20089;-65
2022/01/18 05:40:21;;;;;;;14.65;7.78;;;1.70;99.90;;;;;;4973984;28;20043;-65
2022/01/18 05:42:47;;;;;;;18.48;6.72;;;1.80;99.90;;;;;;4969713;28;20062;-65
2022/01/18 05:45:31;;;;;;;11.18;6.45;;;1.70;99.90;;;;;;4971677;28;20046;-66
2022/01/18 05:47:57;;;;;;;14.00;6.28;;;1.70;99.90;;;;;;4965596;28;20024;-65
2022/01/18 05:50:22;;;;;;;19.25;7.07;;;1.80;99.90;;;;;;4968692;28;20038;-65
2022/01/18 05:52:49;;;;;;;11.25;5.82;;;1.80;99.90;;;;;;4963510;28;20027;-65
2022/01/18 05:55:23;;;;;;;17.42;6.70;;;1.80;99.90;;;;;;4953537;28;20035;-65
2022/01/18 05:57:54;;;;;;;16.98;5.40;;;1.70;99.90;;;;;;4949451;28;20105;-65
2022/01/18 06:00:24;;;;;;;31.48;15.63;;;1.80;99.90;;;;;;4963295;28;20031;-65
2022/01/18 06:08:12;;;;;;;16.92;8.02;;;1.80;99.90;;;;;;4972340;28;20090;-65
2022/01/18 06:10:39;;;;;;;11.15;7.45;;;1.80;99.90;;;;;;4967079;28;20027;-65
2022/01/18 06:13:07;;;;;;;17.60;6.80;;;1.80;99.90;;;;;;4964595;28;20026;-65
2022/01/18 06:15:33;;;;;;;20.25;8.05;;;1.80;99.90;;;;;;4976984;28;20027;-66
2022/01/18 06:17:59;;;;;;;15.73;7.38;;;1.80;99.90;;;;;;4966891;28;20034;-66
2022/01/18 06:20:25;;;;;;;23.50;12.40;;;1.80;99.90;;;;;;4969784;28;20030;-65
2022/01/18 06:22:51;;;;;;;27.77;13.02;;;1.80;99.90;;;;;;4966629;28;20031;-65
2022/01/18 06:25:26;;;;;;;115.40;42.50;;;1.80;99.90;;;;;;4964260;28;20114;-65
2022/01/18 06:27:53;;;;;;;158.15;54.08;;;1.90;99.90;;;;;;4966646;28;20027;-66
2022/01/18 06:30:28;;;;;;;112.57;36.08;;;1.90;99.90;;;;;;4966902;28;20174;-66
2022/01/18 06:32:53;;;;;;;58.47;21.88;;;1.90;99.90;;;;;;4964812;28;20030;-65
2022/01/18 06:35:31;;;;;;;244.82;73.82;;;1.90;99.90;;;;;;4970162;28;20406;-65
2022/01/18 06:37:57;;;;;;;140.77;39.45;;;1.90;99.90;;;;;;4974656;28;20039;-65
2022/01/18 06:40:31;;;;;;;22.20;9.80;;;1.90;99.90;;;;;;4968047;28;20090;-66
2022/01/18 06:42:57;;;;;;;16.55;6.18;;;1.90;99.90;;;;;;4971562;28;20023;-65
2022/01/18 06:45:28;;;;;;;16.85;5.95;;;1.80;99.90;;;;;;4963745;28;20583;-66
2022/01/18 06:47:57;;;;;;;20.27;6.75;;;1.70;99.90;;;;;;4948909;28;20028;-65
2022/01/18 06:50:23;;;;;;;20.15;6.25;;;1.70;99.90;;;;;;4959024;28;20070;-65
2022/01/18 06:52:49;;;;;;;21.70;6.82;;;1.70;99.90;;;;;;4972187;28;20031;-65
2022/01/18 06:55:29;;;;;;;17.67;8.13;;;1.60;99.90;;;;;;4967476;28;20051;-65
2022/01/18 06:58:01;;;;;;;27.42;7.07;;;1.60;99.90;;;;;;4961088;28;20034;-65
2022/01/18 07:00:27;;;;;;;19.60;6.63;;;1.60;99.90;;;;;;4966398;28;20087;-65
2022/01/18 07:02:52;;;;;;;36.30;7.32;;;1.60;99.90;;;;;;4966984;28;20039;-65
2022/01/18 07:05:18;;;;;;;22.98;6.32;;;1.60;99.90;;;;;;4959541;28;20377;-65
2022/01/18 07:07:47;;;;;;;14.02;6.43;;;1.60;99.90;;;;;;4962799;28;20032;-65
2022/01/18 07:10:13;;;;;;;19.90;5.63;;;1.60;99.90;;;;;;4968878;28;20072;-65
2022/01/18 07:12:39;;;;;;;16.33;4.95;;;1.60;99.90;;;;;;4967876;28;20023;-65
2022/01/18 07:15:26;;;;;;;15.48;6.40;;;1.60;99.90;;;;;;4962282;28;20594;-65
2022/01/18 07:17:51;;;;;;;23.38;7.63;;;1.60;99.90;;;;;;4974121;28;20061;-65
2022/01/18 07:20:17;;;;;;;19.13;6.43;;;1.70;99.90;;;;;;4969017;28;20406;-65
2022/01/18 07:22:43;;;;;;;28.13;6.18;;;1.70;99.90;;;;;;4969492;28;20045;-65
2022/01/18 07:25:14;;;;;;;24.20;5.90;;;1.70;99.90;;;;;;4962769;28;20031;-66
2022/01/18 07:27:40;;;;;;;15.45;6.00;;;1.80;99.90;;;;;;4950162;28;20588;-66
2022/01/18 07:30:26;;;;;;;15.93;7.35;;;1.80;99.90;;;;;;4967825;28;20066;-66
2022/01/18 07:32:52;;;;;;;23.00;7.47;;;1.80;99.90;;;;;;4964536;28;20034;-65
2022/01/18 07:35:17;;;;;;;20.88;7.63;;;1.80;99.90;;;;;;4967669;28;20073;-65
2022/01/18 07:37:50;;;;;;;24.00;7.10;;;1.80;99.90;;;;;;4960048;28;20578;-65
2022/01/18 07:40:19;;;;;;;30.23;6.57;;;1.90;99.90;;;;;;4964526;28;20088;-65
2022/01/18 07:42:44;;;;;;;27.80;6.95;;;2.00;99.90;;;;;;4972733;28;20038;-65
2022/01/18 07:45:10;;;;;;;19.27;5.38;;;2.10;99.90;;;;;;4972881;28;20019;-66
2022/01/18 07:47:36;;;;;;;14.98;6.20;;;2.10;99.90;;;;;;4968369;28;20075;-65
2022/01/18 07:50:02;;;;;;;10.65;6.57;;;2.10;99.90;;;;;;4958118;28;20042;-65
2022/01/18 07:52:29;;;;;;;16.40;5.32;;;2.10;99.90;;;;;;4961962;28;20037;-66
2022/01/18 07:54:55;;;;;;;15.93;4.95;;;2.10;99.90;;;;;;4961770;28;20494;-66
2022/01/18 07:57:21;;;;;;;15.85;5.40;;;2.10;99.90;;;;;;4970047;28;20026;-66
2022/01/18 07:59:47;;;;;;;14.65;4.47;;;2.10;99.90;;;;;;4969223;28;20472;-66
2022/01/18 08:02:12;;;;;;;12.13;4.88;;;2.10;99.90;;;;;;4961489;28;20045;-65
2022/01/18 08:04:38;;;;;;;17.95;5.60;;;2.20;99.90;;;;;;4967239;28;20490;-65
2022/01/18 08:07:04;;;;;;;29.67;4.45;;;2.20;99.90;;;;;;4967855;28;20503;-66
2022/01/18 08:09:29;;;;;;;13.63;5.10;;;2.30;99.90;;;;;;4965338;28;20074;-65
2022/01/18 08:11:55;;;;;;;18.38;5.32;;;2.30;99.90;;;;;;4962813;28;20027;-65
2022/01/18 08:14:22;;;;;;;11.68;3.88;;;2.30;99.90;;;;;;4962608;28;20040;-65
2022/01/18 08:17:00;;;;;;;15.48;4.95;;;2.30;99.90;;;;;;4978856;28;20050;-65
2022/01/18 08:19:30;;;;;;;15.75;5.07;;;2.40;99.90;;;;;;4963550;28;20035;-65
2022/01/18 08:21:56;;;;;;;16.77;5.60;;;2.40;99.90;;;;;;4974493;28;20027;-65
2022/01/18 08:24:22;;;;;;;19.77;5.25;;;2.40;99.90;;;;;;4971689;28;20541;-65
2022/01/18 08:26:48;;;;;;;13.27;5.18;;;2.50;99.90;;;;;;4962800;28;20663;-65
2022/01/18 08:29:14;;;;;;;11.45;4.35;;;2.50;99.90;;;;;;4966529;28;20485;-65
2022/01/18 08:31:40;;;;;;;13.52;4.93;;;2.50;99.90;;;;;;4967429;28;20050;-65
2022/01/18 08:34:06;;;;;;;12.32;4.85;;;2.50;99.90;;;;;;4963633;28;20024;-65
2022/01/18 08:36:32;;;;;;;13.77;5.63;;;2.60;99.90;;;;;;4967948;28;20015;-65
2022/01/18 08:38:57;;;;;;;10.93;4.88;;;2.60;99.90;;;;;;4968799;28;20026;-65
2022/01/18 08:41:26;;;;;;;16.23;6.13;;;2.60;99.90;;;;;;4964244;28;20037;-65
2022/01/18 08:43:53;;;;;;;14.18;6.50;;;2.60;99.90;;;;;;4957132;28;20518;-65
2022/01/18 08:46:19;;;;;;;14.38;4.80;;;2.70;99.90;;;;;;4967948;28;20483;-65
2022/01/18 08:48:45;;;;;;;16.75;5.90;;;2.80;99.90;;;;;;4980456;28;20549;-65
2022/01/18 08:51:11;;;;;;;16.95;7.22;;;2.90;99.90;;;;;;4972148;28;20466;-66
2022/01/18 08:53:38;;;;;;;13.85;4.72;;;2.90;99.90;;;;;;4967470;28;20114;-66
2022/01/18 08:56:05;;;;;;;12.63;5.03;;;3.00;99.90;;;;;;4962784;28;20104;-65
2022/01/18 08:58:32;;;;;;;19.08;4.60;;;3.00;99.90;;;;;;4960775;28;20030;-65
2022/01/18 09:00:58;;;;;;;19.17;5.00;;;3.00;99.90;;;;;;4966566;28;20053;-66
2022/01/18 09:03:24;;;;;;;20.13;4.45;;;3.00;99.90;;;;;;4978477;28;20038;-66
2022/01/18 09:06:04;;;;;;;21.35;5.18;;;3.00;99.90;;;;;;4963512;28;20019;-66
2022/01/18 09:08:30;;;;;;;14.52;4.57;;;3.10;99.90;;;;;;4963077;28;20514;-66
2022/01/18 09:10:59;;;;;;;20.25;5.88;;;3.10;99.90;;;;;;4966706;28;20483;-65
2022/01/18 09:13:24;;;;;;;14.55;4.15;;;3.20;99.90;;;;;;4963100;28;20059;-65
2022/01/18 09:16:09;;;;;;;18.42;5.35;;;3.20;99.90;;;;;;4966259;28;20070;-65
2022/01/18 09:18:36;;;;;;;12.65;4.90;;;3.10;99.90;;;;;;4958703;28;20054;-65
2022/01/18 09:21:20;;;;;;;15.27;5.20;;;3.10;99.90;;;;;;4964146;28;20046;-65
2022/01/18 09:23:46;;;;;;;18.88;5.57;;;3.10;99.90;;;;;;4944709;28;20529;-66
2022/01/18 09:26:21;;;;;;;20.60;4.50;;;3.10;99.90;;;;;;4970411;28;20034;-65
2022/01/18 09:28:46;;;;;;;30.23;6.35;;;3.10;99.90;;;;;;4971678;28;20397;-65
2022/01/18 09:31:19;;;;;;;17.40;5.28;;;3.10;99.90;;;;;;4960484;28;20028;-65
2022/01/18 09:33:48;;;;;;;15.38;5.43;;;3.20;99.90;;;;;;4961251;28;20027;-65
2022/01/18 09:36:16;;;;;;;11.23;5.20;;;3.20;99.90;;;;;;4963141;28;20037;-66
2022/01/18 09:38:48;;;;;;;24.05;5.43;;;3.20;99.90;;;;;;4967271;28;20101;-65
2022/01/18 09:41:17;;;;;;;18.02;4.43;;;3.20;99.90;;;;;;4964434;28;20027;-65
2022/01/18 09:43:49;;;;;;;19.83;3.63;;;3.30;99.90;;;;;;4966646;28;20038;-65
2022/01/18 09:46:18;;;;;;;14.23;3.35;;;3.30;99.90;;;;;;4958939;28;20031;-66
2022/01/18 09:48:53;;;;;;;12.57;4.53;;;3.30;99.90;;;;;;4958229;28;20567;-65
2022/01/18 09:51:19;;;;;;;15.73;3.55;;;3.20;99.90;;;;;;4967592;28;20122;-67
2022/01/18 09:53:45;;;;;;;21.75;4.78;;;3.30;99.90;;;;;;4979725;28;20015;-65
2022/01/18 09:56:11;;;;;;;12.43;3.50;;;3.40;99.90;;;;;;4974644;28;20031;-65
2022/01/18 09:58:36;;;;;;;14.30;3.58;;;3.50;99.90;;;;;;4969318;28;20453;-66
2022/01/18 10:01:02;;;;;;;15.20;4.20;;;3.60;99.90;;;;;;4964490;28;20089;-66
2022/01/18 10:03:31;;;;;;;13.93;5.93;;;3.60;99.90;;;;;;4966348;28;20078;-66
2022/01/18 10:05:58;;;;;;;15.75;5.45;;;3.50;99.90;;;;;;4977703;28;20015;-65
2022/01/18 10:08:24;;;;;;;8.82;3.67;;;3.50;99.90;;;;;;4975662;28;20050;-65
2022/01/18 10:10:57;;;;;;;19.08;3.80;;;3.60;99.90;;;;;;4968989;28;20091;-66
2022/01/18 10:13:25;;;;;;;9.52;4.55;;;3.60;99.90;;;;;;4964667;28;20145;-66
2022/01/18 10:16:30;;;;;;;14.35;3.15;;;3.60;99.90;;;;;;4963773;28;20039;-66
2022/01/18 10:19:05;;;;;;;16.40;4.05;;;3.50;99.90;;;;;;4973301;28;20039;-66
2022/01/18 10:21:56;;;;;;;18.13;5.45;;;3.60;99.90;;;;;;4971794;28;20082;-65
2022/01/18 10:24:26;;;;;;;23.02;4.90;;;3.60;99.90;;;;;;4954421;28;20079;-66
2022/01/18 10:26:54;;;;;;;22.50;5.07;;;3.70;99.90;;;;;;4961875;28;20027;-66
2022/01/18 10:29:26;;;;;;;11.52;4.25;;;3.80;99.90;;;;;;4957214;28;20042;-66
2022/01/18 10:37:12;;;;;;;9.60;4.20;;;4.10;99.90;;;;;;4968577;28;20506;-66
2022/01/18 10:39:51;;;;;;;14.18;4.57;;;4.10;99.90;;;;;;4963755;28;20120;-65
2022/01/18 10:42:20;;;;;;;10.38;3.65;;;4.10;99.90;;;;;;4966100;28;20050;-66
2022/01/18 10:44:48;;;;;;;11.52;4.22;;;4.20;99.90;;;;;;4965924;28;20131;-65
2022/01/18 10:47:16;;;;;;;18.25;4.78;;;4.20;99.90;;;;;;4970819;28;20487;-65
2022/01/18 10:49:47;;;;;;;19.17;4.75;;;4.30;99.90;;;;;;4967443;28;20088;-66
2022/01/18 10:52:22;;;;;;;9.23;3.83;;;4.40;99.90;;;;;;4960212;28;20039;-66
2022/01/18 10:54:58;;;;;;;19.08;4.15;;;4.60;99.90;;;;;;4949379;28;20026;-65
2022/01/18 10:57:29;;;;;;;12.93;4.30;;;4.80;99.90;;;;;;4963392;28;20387;-66
2022/01/18 11:00:04;;;;;;;16.20;5.25;;;5.00;99.90;;;;;;4974761;28;20030;-66
2022/01/18 11:02:41;;;;;;;17.67;7.40;;;5.10;99.90;;;;;;4965740;28;20049;-66
2022/01/18 11:05:41;;;;;;;11.38;4.50;;;5.40;99.90;;;;;;4958811;28;20038;-66
2022/01/18 11:08:07;;;;;;;18.50;5.37;;;5.50;99.90;;;;;;4968971;28;20400;-66
2022/01/18 11:10:34;;;;;;;18.27;4.93;;;5.50;99.90;;;;;;4971944;28;20837;-66
2022/01/18 11:13:04;;;;;;;13.98;4.75;;;5.50;99.90;;;;;;4975252;28;20030;-66
2022/01/18 11:15:36;;;;;;;13.82;5.28;;;5.70;99.90;;;;;;4966468;28;20031;-66
2022/01/18 11:18:07;;;;;;;14.65;6.03;;;5.80;99.90;;;;;;4959719;28;20019;-66
2022/01/18 11:20:36;;;;;;;14.57;6.15;;;5.90;99.90;;;;;;4970411;28;20030;-66
2022/01/18 11:23:05;;;;;;;10.40;5.90;;;6.20;99.90;;;;;;4967467;28;20038;-66
2022/01/18 11:25:31;;;;;;;15.77;7.57;;;6.20;99.90;;;;;;4968597;28;20023;-66
2022/01/18 11:27:58;;;;;;;16.85;6.85;;;6.40;99.90;;;;;;4962858;28;20023;-66
2022/01/18 11:30:36;;;;;;;16.02;7.30;;;6.40;99.90;;;;;;4956073;28;20023;-66
2022/01/18 11:33:07;;;;;;;12.25;6.20;;;6.60;99.90;;;;;;4969677;28;20214;-65
2022/01/18 11:35:53;;;;;;;11.48;6.50;;;6.90;99.90;;;;;;4972551;28;20490;-66
2022/01/18 11:38:31;;;;;;;12.75;5.88;;;7.30;99.90;;;;;;4969349;28;20045;-66
2022/01/18 11:40:58;;;;;;;8.65;5.38;;;7.80;99.90;;;;;;4962947;28;20030;-66
2022/01/18 11:43:55;;;;;;;8.02;5.15;;;7.90;99.90;;;;;;4970479;28;20059;-66
2022/01/18 11:46:28;;;;;;;11.07;6.35;;;8.30;99.90;;;;;;4962866;28;20027;-66
2022/01/18 11:49:29;;;;;;;8.20;5.15;;;8.70;99.90;;;;;;4965981;28;20026;-65
2022/01/18 11:52:00;;;;;;;8.35;3.40;;;9.30;99.90;;;;;;4971949;28;20736;-66
2022/01/18 11:56:57;;;;;;;6.10;3.10;;;9.50;99.90;;;;;;4964392;28;20053;-64
2022/01/18 11:59:43;;;;;;;6.18;3.05;;;9.40;99.90;;;;;;4967535;28;20094;-63
2022/01/18 12:02:30;;;;;;;9.70;4.45;;;9.20;99.90;;;;;;4955963;28;20443;-63
2022/01/18 12:04:58;;;;;;;9.95;3.95;;;9.00;99.90;;;;;;4966961;28;20039;-63
2022/01/18 12:08:02;;;;;;;4.65;2.72;;;8.80;99.90;;;;;;4967897;28;20050;-63
2022/01/18 12:10:31;;;;;;;5.43;2.92;;;8.70;99.90;;;;;;4964642;28;20395;-64
2022/01/18 12:13:21;;;;;;;4.93;3.00;;;8.80;99.90;;;;;;4967483;28;20118;-63
2022/01/18 12:15:51;;;;;;;10.07;4.50;;;8.80;99.90;;;;;;4974668;28;20035;-63
2022/01/18 12:18:49;;;;;;;6.60;2.92;;;8.70;99.90;;;;;;4966636;28;20034;-64
2022/01/18 12:21:26;;;;;;;5.90;2.80;;;8.60;99.90;;;;;;4961221;28;20034;-65
2022/01/18 12:23:52;;;;;;;8.80;3.20;;;8.30;99.90;;;;;;4970957;28;20034;-64
2022/01/18 12:34:31;;;;;;;5.18;3.13;;;8.00;99.90;;;;;;4959388;28;20077;-64
2022/01/18 12:37:23;;;;;;;8.68;4.40;;;7.90;99.90;;;;;;4961529;28;20026;-64
2022/01/18 12:40:24;;;;;;;;;;;7.60;99.90;;;;;;4968837;28;20035;-64
2022/01/18 12:45:36;;;;;;;7.15;3.50;;;7.30;99.90;;;;;;4966373;28;20078;-63
2022/01/18 12:48:08;;;;;;;6.85;4.13;;;7.40;99.90;;;;;;4969493;28;20443;-64
2022/01/18 12:50:39;;;;;;;5.43;3.13;;;7.50;99.90;;;;;;4967803;28;20089;-66
2022/01/18 12:53:08;;;;;;;5.18;2.90;;;7.50;99.90;;;;;;4964577;28;20036;-66
2022/01/18 12:55:57;;;;;;;5.50;2.85;;;7.40;99.90;;;;;;4969230;28;20121;-65
2022/01/18 12:58:26;;;;;;;3.03;2.53;;;7.30;99.90;;;;;;4958971;28;20105;-65
2022/01/18 13:00:56;;;;;;;5.47;2.20;;;7.10;99.90;;;;;;4976988;28;20042;-65
2022/01/18 13:03:34;;;;;;;4.03;2.42;;;7.10;99.90;;;;;;4976359;28;20058;-66
2022/01/18 13:06:06;;;;;;;7.40;2.63;;;7.00;99.90;;;;;;4961123;28;20023;-66
2022/01/18 13:08:39;;;;;;;;;;;7.00;99.90;;;;;;4962167;28;20027;-66
2022/01/18 13:11:05;;;;;;;3.03;1.77;;;7.00;99.90;;;;;;4968316;28;19924;-66
2022/01/18 13:13:33;;;;;;;4.53;2.35;;;7.10;99.90;;;;;;4968341;28;20031;-66
2022/01/18 13:22:54;;;;;;;4.60;2.72;;;7.20;99.90;;;;;;4973396;28;20495;-66
2022/01/18 13:27:30;;;;;;;4.05;1.77;;;7.20;99.90;;;;;;4974651;28;20046;-66
2022/01/18 13:30:12;;;;;;;1.65;1.40;;;7.00;99.90;;;;;;4966745;28;20042;-66
2022/01/18 13:32:38;;;;;;;2.88;1.50;;;7.00;99.90;;;;;;4969073;28;20153;-66
2022/01/18 13:35:05;;;;;;;2.95;1.60;;;6.90;99.90;;;;;;4972435;28;20070;-66
2022/01/18 13:37:34;;;;;;;4.78;3.05;;;6.80;99.90;;;;;;4968569;28;20090;-66
2022/01/18 13:40:03;;;;;;;6.25;3.03;;;6.70;99.90;;;;;;4966126;28;20047;-66
2022/01/18 13:43:07;;;;;;;5.57;1.73;;;6.60;99.90;;;;;;4963446;28;20110;-66
2022/01/18 13:45:35;;;;;;;3.55;1.73;;;6.60;99.90;;;;;;4977811;28;20039;-66
2022/01/18 13:48:06;;;;;;;4.25;1.75;;;6.60;99.90;;;;;;4970507;28;20023;-66
2022/01/18 13:50:31;;;;;;;3.63;1.77;;;6.50;99.90;;;;;;4968057;28;20066;-66
2022/01/18 13:53:29;;;;;;;1.90;1.50;;;6.50;99.90;;;;;;4974317;28;20059;-66
2022/01/18 13:55:57;;;;;;;2.58;1.95;;;6.40;99.90;;;;;;4973504;28;20031;-66
2022/01/18 13:58:53;;;;;;;3.38;2.40;;;6.40;99.90;;;;;;4966093;28;20034;-65
2022/01/18 14:01:21;;;;;;;6.90;3.70;;;6.40;99.90;;;;;;4971683;28;20189;-65
2022/01/18 14:03:56;;;;;;;10.70;7.07;;;6.30;99.90;;;;;;4967058;28;20626;-66
2022/01/18 14:06:36;;;;;;;19.15;10.65;;;6.20;99.90;;;;;;4968460;28;20372;-66
2022/01/18 14:09:03;;;;;;;76.85;33.60;;;6.10;99.90;;;;;;4968093;28;20027;-66
2022/01/18 14:11:31;;;;;;;35.10;17.85;;;6.00;99.90;;;;;;4964268;28;20511;-66
2022/01/18 14:13:57;;;;;;;21.98;14.25;;;6.00;99.90;;;;;;4967918;28;20098;-65
2022/01/18 14:16:33;;;;;;;7.45;5.43;;;5.90;99.90;;;;;;4985638;28;20407;-66
2022/01/18 14:19:08;;;;;;;6.15;5.20;;;5.80;99.90;;;;;;4981213;28;20065;-66
2022/01/18 14:21:37;;;;;;;6.20;4.15;;;5.70;99.90;;;;;;4963705;28;20046;-66
2022/01/18 14:24:13;;;;;;;3.38;3.05;;;5.70;99.90;;;;;;4949320;28;20203;-65
2022/01/18 14:26:52;;;;;;;2.83;1.88;;;5.70;99.90;;;;;;4965755;28;20034;-66
2022/01/18 14:29:37;;;;;;;3.42;1.80;;;5.80;99.90;;;;;;4966466;28;20027;-66
2022/01/18 14:32:30;;;;;;;3.83;2.45;;;5.80;99.90;;;;;;4974022;28;20086;-65
2022/01/18 14:35:02;;;;;;;4.00;1.63;;;5.90;99.90;;;;;;4967306;28;20028;-66
2022/01/18 14:37:50;;;;;;;2.38;1.40;;;5.90;99.90;;;;;;4966219;28;20031;-65
2022/01/18 14:40:27;;;;;;;4.93;1.70;;;5.90;99.90;;;;;;4961728;28;20031;-66
2022/01/18 14:43:00;;;;;;;2.95;1.70;;;5.80;99.90;;;;;;4961711;28;20095;-65